Grand Forks Air Force Base Grand Forks US
ICAO: KRDR
IATA: RDR
Category: Medium
Scheduled Services: No

Elevation: 913 ft
TransAlt. 18000 ft.

Airport Communications:
APP/DEP:118.1
ATIS:27.345
CLNC DEL:119.15
GND:119.15
PMSV METRO:34.35
COMD POST:31.1
PTD:37.22
RDO:122.2
RED RIVER TWR:124.9

KRDR Zoom In..

If you have problems with the map follow the link
https://www.worldairports.se/pages/airport.php?
ICAO=KRDR

Runways:

(A) RW 17 length 12351 ft width 150 ft
ILS 111.30 / hdg 174

(B) RW 35 length 12351 ft width 150 ft
ILS 109.90 / hdg 354

Location; KRDR
Day. 18 / Time. 10.56 Zulu
* Altimeter: 29.91
* Temperature: -16° c. -3.2°f.
* Wind from: 320° Speed 21 kn with Gusts up to 28 kn.
Dewpoint: -18° c.
Visibility: 1/2 Statute Miles.
Clouds: Few 800 ft.
Clouds: Overcast 1600 ft.
Conditions: Light Snow.

KRDR 181056Z 32021G28KT 1/2SM -SN BLSN FEW008 OVC016 M16/M18 A2991 RMK A02A PK WND 31030/45 SLP153 P0001 T11561183 $


Wind From 320°
Speed 21 kn.

 
 
jpsmedia worldairports.se 2020   terms of use